Time;durP1;ratioP1;P1;durP2;ratioP2;P2;SDS_P1;SDS_P2;PMS_P1;PMS_P2;Temp;Humidity;BMP_temperature;BMP_pressure;BME280_temperature;BME280_humidity;BME280_pressure;Samples;Min_cycle;Max_cycle;Signal;HPM_P1;HPM_P2
2022/12/05 00:02:28;;;;;;;24.05;14.15;;;4.50;99.90;;;;;;6243515;22;20034;-88
2022/12/05 00:05:22;;;;;;;;;;;;;;;;;;;;;
2022/12/05 00:07:56;;;;;;;23.27;12.35;;;4.00;99.90;;;;;;6221832;22;20018;-88
2022/12/05 00:10:55;;;;;;;22.75;13.40;;;5.40;99.90;;;;;;6195206;22;20139;-88
2022/12/05 00:13:26;;;;;;;22.67;13.13;;;6.00;99.90;;;;;;6222549;22;20058;-88
2022/12/05 00:16:00;;;;;;;20.52;11.68;;;5.00;99.90;;;;;;6220636;22;20015;-88
2022/12/05 00:18:32;;;;;;;21.63;12.40;;;4.70;99.90;;;;;;6218883;22;20026;-88
2022/12/05 00:21:14;;;;;;;22.92;12.65;;;4.80;99.90;;;;;;6220306;22;20016;-89
2022/12/05 00:23:45;;;;;;;22.08;13.30;;;4.70;99.90;;;;;;6220363;22;20696;-88
2022/12/05 00:26:15;;;;;;;22.58;12.38;;;6.40;99.90;;;;;;6221236;22;20027;-87
2022/12/05 00:28:41;;;;;;;21.50;12.82;;;3.30;99.90;;;;;;6222349;22;20508;-89
2022/12/05 00:31:32;;;;;;;20.60;12.30;;;4.90;99.90;;;;;;6230577;22;20046;-88
2022/12/05 00:34:21;;;;;;;21.33;12.80;;;4.80;99.90;;;;;;6185192;22;20022;-87
2022/12/05 00:36:49;;;;;;;;;;;4.90;99.90;;;;;;6231341;22;20016;-88
2022/12/05 00:39:18;;;;;;;24.80;12.55;;;4.80;99.90;;;;;;6225984;22;19919;-88
2022/12/05 00:41:50;;;;;;;23.03;12.50;;;6.50;99.90;;;;;;6221080;22;20023;-88
2022/12/05 00:44:19;;;;;;;24.15;12.77;;;4.90;99.90;;;;;;6219604;22;20019;-88
2022/12/05 00:46:59;;;;;;;23.40;12.57;;;4.90;99.90;;;;;;6220457;22;20015;-88
2022/12/05 00:49:34;;;;;;;20.40;12.38;;;4.80;99.90;;;;;;6163247;23;20078;-88
2022/12/05 00:52:12;;;;;;;;;;;;;;;;;;;;;
2022/12/05 00:54:51;;;;;;;23.23;12.75;;;3.60;99.90;;;;;;6189958;23;20067;-88
2022/12/05 00:57:22;;;;;;;21.95;12.35;;;4.80;99.90;;;;;;6212247;23;20106;-88
2022/12/05 01:00:08;;;;;;;19.77;12.02;;;4.60;99.90;;;;;;6211005;23;20050;-88
2022/12/05 01:02:55;;;;;;;20.48;11.15;;;4.60;99.90;;;;;;6143907;23;20023;-88
2022/12/05 01:05:44;;;;;;;20.38;11.27;;;4.50;99.90;;;;;;6184586;23;20024;-88
2022/12/05 01:08:18;;;;;;;20.23;11.52;;;4.70;99.90;;;;;;6167861;23;20016;-88
2022/12/05 01:11:03;;;;;;;20.20;10.77;;;5.50;99.90;;;;;;6185633;23;20447;-89
2022/12/05 01:13:37;;;;;;;18.30;10.98;;;4.80;99.90;;;;;;6185042;23;20452;-88
2022/12/05 01:16:16;;;;;;;18.25;11.15;;;4.60;99.90;;;;;;6232419;23;20308;-89
2022/12/05 01:18:45;;;;;;;19.75;10.75;;;3.40;99.90;;;;;;6186357;23;20016;-88
2022/12/05 01:21:18;;;;;;;21.80;12.02;;;4.70;99.90;;;;;;6188594;23;20444;-87
2022/12/05 01:26:49;;;;;;;17.88;10.93;;;3.50;99.90;;;;;;6194707;23;20040;-88
2022/12/05 01:29:20;;;;;;;19.75;10.98;;;4.70;99.90;;;;;;6186958;23;20073;-88
2022/12/05 01:31:49;;;;;;;22.20;12.02;;;4.80;99.90;;;;;;6186016;23;20329;-88
2022/12/05 01:34:26;;;;;;;;;;;;;;;;;;;;;
2022/12/05 01:36:58;;;;;;;22.10;12.30;;;4.80;99.90;;;;;;6209953;23;20026;-88
2022/12/05 01:39:29;;;;;;;19.98;11.75;;;6.70;99.90;;;;;;6186199;23;20020;-87
2022/12/05 01:41:56;;;;;;;22.45;13.43;;;4.90;99.90;;;;;;6187891;23;20012;-87
2022/12/05 01:44:25;;;;;;;23.58;13.45;;;6.60;99.90;;;;;;6163430;23;20321;-88
2022/12/05 01:47:01;;;;;;;22.52;13.10;;;4.90;99.90;;;;;;6188757;23;20081;-87
2022/12/05 01:49:32;;;;;;;24.05;13.00;;;4.80;99.90;;;;;;6191230;22;20109;-87
2022/12/05 01:52:15;;;;;;;;;;;;;;;;;;;;;
2022/12/05 01:54:57;;;;;;;21.63;12.23;;;4.90;99.90;;;;;;6244373;22;20352;-87
2022/12/05 01:57:26;;;;;;;18.90;11.65;;;5.20;99.90;;;;;;6194328;22;20466;-88
2022/12/05 01:59:57;;;;;;;22.52;12.43;;;4.00;99.90;;;;;;6192395;22;20038;-88
2022/12/05 02:02:27;;;;;;;22.90;12.65;;;5.10;99.90;;;;;;6217747;22;20026;-88
2022/12/05 02:05:06;;;;;;;20.95;11.25;;;3.40;99.90;;;;;;6218690;22;20054;-88
2022/12/05 02:07:42;;;;;;;23.75;13.85;;;5.30;99.90;;;;;;6218623;22;20015;-88
2022/12/05 02:10:08;;;;;;;19.83;12.43;;;5.10;99.90;;;;;;6243432;22;20126;-88
2022/12/05 02:12:45;;;;;;;21.90;12.68;;;4.90;99.90;;;;;;6217339;22;20340;-89
2022/12/05 02:15:48;;;;;;;;;;;3.60;99.90;;;;;;6242881;22;20419;-88
2022/12/05 02:18:28;;;;;;;22.92;12.15;;;5.00;99.90;;;;;;6218612;22;20014;-88
2022/12/05 02:21:38;;;;;;;21.17;12.20;;;4.90;99.90;;;;;;6219502;22;20019;-88
2022/12/05 02:24:59;;;;;;;22.20;11.93;;;4.90;99.90;;;;;;6153562;22;20035;-88
2022/12/05 02:27:44;;;;;;;20.00;11.55;;;5.30;99.90;;;;;;6138722;22;20463;-88
2022/12/05 02:30:20;;;;;;;23.33;11.98;;;5.60;99.90;;;;;;6217959;22;20034;-87
2022/12/05 02:33:08;;;;;;;20.70;10.88;;;5.00;99.90;;;;;;6220745;22;20447;-86
2022/12/05 02:35:53;;;;;;;20.10;11.65;;;4.90;99.90;;;;;;6220157;22;20020;-88
2022/12/05 02:38:32;;;;;;;18.52;10.55;;;5.30;99.90;;;;;;6218626;22;20016;-87
2022/12/05 02:41:15;;;;;;;18.50;11.00;;;5.00;99.90;;;;;;6219789;22;20023;-88
2022/12/05 02:43:55;;;;;;;19.75;10.82;;;5.10;99.90;;;;;;6219186;22;20019;-88
2022/12/05 02:47:19;;;;;;;20.42;10.38;;;5.00;99.90;;;;;;6219651;22;20024;-87
2022/12/05 02:49:51;;;;;;;19.55;10.25;;;5.20;99.90;;;;;;6162146;23;20428;-88
2022/12/05 02:52:41;;;;;;;17.30;10.15;;;5.20;99.90;;;;;;6189445;23;20024;-89
2022/12/05 02:55:32;;;;;;;16.95;8.80;;;5.20;99.90;;;;;;6216905;23;20027;-88
2022/12/05 02:58:06;;;;;;;19.20;9.55;;;4.90;99.90;;;;;;6188074;23;20533;-88
2022/12/05 03:00:38;;;;;;;17.52;8.43;;;5.00;99.90;;;;;;6187289;23;20500;-89
2022/12/05 03:03:17;;;;;;;18.65;8.93;;;5.20;99.90;;;;;;6189776;23;20023;-88
2022/12/05 03:06:01;;;;;;;14.98;8.38;;;5.10;99.90;;;;;;6189551;23;20046;-88
2022/12/05 03:08:34;;;;;;;14.73;7.85;;;5.00;99.90;;;;;;6189014;23;20031;-87
2022/12/05 03:11:03;;;;;;;12.45;7.35;;;5.10;99.90;;;;;;6189257;23;20451;-88
2022/12/05 03:13:59;;;;;;;13.88;7.47;;;5.20;99.90;;;;;;6164789;23;20020;-88
2022/12/05 03:16:42;;;;;;;12.82;6.95;;;5.30;99.90;;;;;;6166389;23;20016;-88
2022/12/05 03:19:40;;;;;;;12.07;7.10;;;5.10;99.90;;;;;;6188929;23;20085;-87
2022/12/05 03:22:19;;;;;;;13.48;6.93;;;5.40;99.90;;;;;;6191351;23;20026;-88
2022/12/05 03:24:45;;;;;;;14.30;7.30;;;5.10;99.90;;;;;;6189944;23;20026;-87
2022/12/05 03:27:41;;;;;;;11.68;6.32;;;6.50;99.90;;;;;;6188776;23;20016;-88
2022/12/05 03:30:39;;;;;;;12.68;7.90;;;5.30;99.90;;;;;;6213378;23;20020;-88
2022/12/05 03:33:34;;;;;;;14.95;7.43;;;5.30;99.90;;;;;;6187677;23;20019;-89
2022/12/05 03:36:14;;;;;;;;;;;;;;;;;;;;;
2022/12/05 03:39:31;;;;;;;;;;;;;;;;;;;;;
2022/12/05 03:42:06;;;;;;;14.27;6.70;;;5.30;99.90;;;;;;6077475;23;20014;-88
2022/12/05 03:44:48;;;;;;;11.77;6.35;;;5.40;99.90;;;;;;6189002;23;20016;-88
2022/12/05 03:47:47;;;;;;;14.05;6.13;;;5.60;99.90;;;;;;6190515;22;20020;-87
2022/12/05 03:50:44;;;;;;;11.38;7.22;;;5.40;99.90;;;;;;6219320;22;20015;-88
2022/12/05 03:53:48;;;;;;;;;;;;;;;;;;;;;
2022/12/05 03:56:23;;;;;;;10.63;6.00;;;5.30;99.90;;;;;;6243377;22;20090;-88
2022/12/05 03:59:18;;;;;;;10.45;6.72;;;5.50;99.90;;;;;;6245486;22;20050;-88
2022/12/05 04:02:09;;;;;;;11.40;6.35;;;5.20;99.90;;;;;;6219983;22;20513;-87
2022/12/05 04:05:18;;;;;;;10.00;5.85;;;5.30;99.90;;;;;;6220620;22;20012;-88
2022/12/05 04:07:48;;;;;;;10.75;5.82;;;5.40;99.90;;;;;;6141949;22;20019;-87
2022/12/05 04:10:29;;;;;;;12.73;6.38;;;5.40;99.90;;;;;;6244978;22;20043;-88
2022/12/05 04:13:16;;;;;;;11.98;5.63;;;5.30;99.90;;;;;;6220631;22;20020;-88
2022/12/05 04:19:03;;;;;;;11.15;6.00;;;6.40;99.90;;;;;;6244431;22;20054;-87
2022/12/05 04:27:31;;;;;;;12.88;6.05;;;5.40;99.90;;;;;;6256581;22;20095;-88
2022/12/05 04:30:08;;;;;;;15.52;6.47;;;5.30;99.90;;;;;;6222816;22;20020;-89
2022/12/05 04:33:24;;;;;;;13.05;5.90;;;7.10;99.90;;;;;;6221100;22;20192;-88
2022/12/05 04:36:24;;;;;;;10.70;5.63;;;5.10;99.90;;;;;;6188228;22;20030;-89
2022/12/05 04:39:10;;;;;;;10.48;6.03;;;5.20;99.90;;;;;;6226478;22;20031;-88
2022/12/05 04:41:40;;;;;;;11.52;5.90;;;5.20;99.90;;;;;;6219036;22;20019;-88
2022/12/05 04:44:17;;;;;;;13.07;5.55;;;5.40;99.90;;;;;;6219408;22;20012;-88
2022/12/05 04:47:13;;;;;;;12.45;5.55;;;5.30;99.90;;;;;;6244385;22;20065;-88
2022/12/05 04:49:51;;;;;;;9.18;5.10;;;4.10;99.90;;;;;;6189484;23;20020;-89
2022/12/05 04:52:31;;;;;;;8.93;5.50;;;7.10;99.90;;;;;;6188545;23;20012;-88
2022/12/05 04:55:25;;;;;;;11.43;5.65;;;5.70;99.90;;;;;;6189370;23;20023;-87
2022/12/05 04:58:06;;;;;;;10.13;5.72;;;5.30;99.90;;;;;;6213578;23;20016;-88
2022/12/05 05:01:05;;;;;;;13.15;6.32;;;5.80;99.90;;;;;;6190432;23;20052;-89
2022/12/05 05:03:56;;;;;;;11.90;5.65;;;5.90;99.90;;;;;;6188755;23;20020;-87
2022/12/05 05:06:30;;;;;;;10.93;6.53;;;5.30;99.90;;;;;;6188392;23;20070;-88
2022/12/05 05:09:08;;;;;;;12.20;5.93;;;5.60;99.90;;;;;;6187288;23;20054;-89
2022/12/05 05:14:42;;;;;;;12.63;6.27;;;5.40;99.90;;;;;;6173107;23;20115;-88
2022/12/05 05:17:43;;;;;;;10.88;6.13;;;6.70;99.90;;;;;;6186900;23;20024;-89
2022/12/05 05:20:38;;;;;;;10.07;6.47;;;7.00;99.90;;;;;;6163161;23;20351;-88
2022/12/05 05:23:17;;;;;;;14.35;6.53;;;5.50;99.90;;;;;;6186539;23;20019;-89
2022/12/05 05:26:14;;;;;;;;;;;;;;;;;;;;;
2022/12/05 05:28:40;;;;;;;12.38;6.82;;;5.20;99.90;;;;;;6167600;23;20095;-87
2022/12/05 05:31:08;;;;;;;12.77;6.53;;;5.40;99.90;;;;;;6186758;23;20440;-88
2022/12/05 05:33:50;;;;;;;12.20;6.13;;;5.30;99.90;;;;;;6185626;23;20047;-88
2022/12/05 05:36:21;;;;;;;10.63;6.40;;;6.80;99.90;;;;;;6163319;23;20012;-89
2022/12/05 05:39:11;;;;;;;12.18;6.15;;;5.40;99.90;;;;;;6188783;23;20024;-88
2022/12/05 05:41:46;;;;;;;12.43;6.90;;;5.40;99.90;;;;;;6159766;23;20058;-89
2022/12/05 05:44:15;;;;;;;15.07;6.47;;;5.40;99.90;;;;;;6164323;23;20448;-88
2022/12/05 05:47:21;;;;;;;12.35;6.45;;;5.50;99.90;;;;;;6188415;23;20016;-89
2022/12/05 05:50:05;;;;;;;;;;;;;;;;;;;;;
2022/12/05 05:52:42;;;;;;;12.88;6.53;;;4.80;99.90;;;;;;6192148;23;20020;-88
2022/12/05 05:55:10;;;;;;;15.40;6.97;;;5.80;99.90;;;;;;6188845;23;20701;-87
2022/12/05 05:58:06;;;;;;;12.38;6.78;;;5.50;99.90;;;;;;6190043;23;20657;-88
2022/12/05 06:00:49;;;;;;;13.30;6.65;;;4.30;99.90;;;;;;6213719;23;20016;-88
2022/12/05 06:03:18;;;;;;;14.13;6.10;;;5.60;99.90;;;;;;6187539;23;20467;-88
2022/12/05 06:06:07;;;;;;;13.55;6.20;;;5.50;99.90;;;;;;6162432;23;20099;-89
2022/12/05 06:11:53;;;;;;;17.65;6.63;;;5.30;99.90;;;;;;6211072;23;20024;-89
2022/12/05 06:14:39;;;;;;;;;;;;;;;;;;;;;
2022/12/05 06:17:30;;;;;;;;;;;;;;;;;;;;;
2022/12/05 06:19:58;;;;;;;14.45;6.78;;;6.20;99.90;;;;;;6210449;23;20028;-88
2022/12/05 06:22:26;;;;;;;20.45;6.65;;;4.40;99.90;;;;;;6185543;23;20020;-88
2022/12/05 06:25:02;;;;;;;14.18;6.53;;;5.60;99.90;;;;;;6186852;23;20054;-88
2022/12/05 06:27:34;;;;;;;13.80;6.32;;;5.80;99.90;;;;;;6160012;23;20354;-86
2022/12/05 06:30:04;;;;;;;13.80;6.55;;;5.60;99.90;;;;;;6186391;23;20031;-88
2022/12/05 06:33:41;;;;;;;;;;;;;;;;;;;;;
2022/12/05 06:39:57;;;;;;;12.60;6.22;;;5.50;99.90;;;;;;6189459;23;20035;-90
2022/12/05 06:42:26;;;;;;;12.93;6.78;;;5.70;99.90;;;;;;6169614;23;20024;-88
2022/12/05 06:51:31;;;;;;;14.85;6.60;;;5.60;99.90;;;;;;6218760;22;20026;-88
2022/12/05 06:54:23;;;;;;;12.88;6.05;;;7.10;99.90;;;;;;6217494;22;20019;-88
2022/12/05 06:57:01;;;;;;;13.65;6.45;;;5.70;99.90;;;;;;6242538;22;20035;-89
2022/12/05 06:59:33;;;;;;;13.60;6.43;;;5.60;99.90;;;;;;6217402;22;20023;-85
2022/12/05 07:02:01;;;;;;;15.50;6.38;;;5.60;99.90;;;;;;6219250;22;20046;-89
2022/12/05 07:04:36;;;;;;;12.82;6.07;;;5.60;99.90;;;;;;6195424;22;20028;-88
2022/12/05 07:07:05;;;;;;;12.40;5.63;;;;;;;;;;6219825;22;20020;-88
2022/12/05 07:12:17;;;;;;;15.77;6.43;;;5.60;99.90;;;;;;6243952;22;20387;-87
2022/12/05 07:14:44;;;;;;;12.18;5.88;;;5.70;99.90;;;;;;6244680;22;20071;-88
2022/12/05 07:17:15;;;;;;;12.82;5.70;;;4.70;99.90;;;;;;6243218;22;20074;-87
2022/12/05 07:19:41;;;;;;;13.52;6.03;;;6.20;99.90;;;;;;6217172;22;20050;-86
2022/12/05 07:22:06;;;;;;;10.02;5.30;;;7.30;99.90;;;;;;6193564;22;20016;-85
2022/12/05 07:24:35;;;;;;;10.55;4.90;;;5.60;99.90;;;;;;6218590;22;20075;-88
2022/12/05 07:27:06;;;;;;;11.05;5.45;;;6.10;99.90;;;;;;6219271;22;20063;-86
2022/12/05 07:29:39;;;;;;;12.43;5.70;;;5.80;99.90;;;;;;6196306;22;20340;-89
2022/12/05 07:32:32;;;;;;;11.45;4.88;;;5.70;99.90;;;;;;6196035;22;20098;-89
2022/12/05 07:35:09;;;;;;;10.65;5.57;;;5.60;99.90;;;;;;6221017;22;20431;-88
2022/12/05 07:37:38;;;;;;;12.70;5.35;;;4.80;99.90;;;;;;6245925;22;20016;-87
2022/12/05 07:40:09;;;;;;;9.70;4.90;;;7.40;99.90;;;;;;6196609;22;20023;-89
2022/12/05 07:42:57;;;;;;;;;;;;;;;;;;;;;
2022/12/05 07:45:26;;;;;;;11.32;5.70;;;5.60;99.90;;;;;;6246869;22;20015;-87
2022/12/05 07:47:52;;;;;;;13.65;5.00;;;5.50;99.90;;;;;;6196168;22;20091;-89
2022/12/05 07:50:20;;;;;;;17.05;5.15;;;5.70;99.90;;;;;;6221897;22;20062;-88
2022/12/05 07:52:46;;;;;;;10.52;5.28;;;5.50;99.90;;;;;;6220631;22;20435;-86
2022/12/05 07:55:11;;;;;;;8.48;4.40;;;6.90;99.90;;;;;;6219771;22;20023;-87
2022/12/05 07:57:37;;;;;;;10.27;4.80;;;5.50;99.90;;;;;;6218193;22;20070;-86
2022/12/05 08:00:03;;;;;;;8.20;4.90;;;5.80;99.90;;;;;;6244401;22;20472;-86
2022/12/05 08:02:29;;;;;;;12.00;4.70;;;5.50;99.90;;;;;;6217112;22;20020;-84
2022/12/05 08:04:55;;;;;;;13.07;4.95;;;7.10;99.90;;;;;;6218008;22;20447;-85
2022/12/05 08:07:21;;;;;;;10.13;5.32;;;7.30;99.90;;;;;;6243136;22;20026;-86
2022/12/05 08:09:47;;;;;;;11.35;4.78;;;5.60;99.90;;;;;;6192907;22;20015;-85
2022/12/05 08:12:12;;;;;;;14.48;4.95;;;5.70;99.90;;;;;;6220362;22;20077;-85
2022/12/05 08:14:41;;;;;;;15.10;5.60;;;5.50;99.90;;;;;;6219713;22;20016;-87
2022/12/05 08:17:07;;;;;;;9.68;4.80;;;7.00;99.90;;;;;;6205731;22;20058;-87
2022/12/05 08:19:36;;;;;;;10.10;4.82;;;6.40;99.90;;;;;;6199120;22;20023;-87
2022/12/05 08:22:02;;;;;;;11.65;4.78;;;5.50;99.90;;;;;;6228425;22;20016;-87
2022/12/05 08:24:27;;;;;;;11.95;5.53;;;5.70;99.90;;;;;;6250832;22;20493;-87
2022/12/05 08:26:56;;;;;;;13.90;5.35;;;5.50;99.90;;;;;;6221556;22;20070;-87
2022/12/05 08:29:22;;;;;;;12.43;4.38;;;5.50;99.90;;;;;;6220954;22;20042;-85
2022/12/05 08:31:49;;;;;;;9.73;4.60;;;5.60;99.90;;;;;;6219639;22;20023;-87
2022/12/05 08:34:18;;;;;;;10.75;4.35;;;5.50;99.90;;;;;;6244387;22;20402;-84
2022/12/05 08:36:44;;;;;;;12.80;4.47;;;5.90;99.90;;;;;;6217670;22;20151;-88
2022/12/05 08:39:14;;;;;;;11.18;4.63;;;7.10;99.90;;;;;;6218589;22;20057;-87
2022/12/05 08:41:41;;;;;;;14.65;5.13;;;5.60;99.90;;;;;;6217973;22;20357;-87
2022/12/05 08:44:09;;;;;;;12.15;4.72;;;5.60;99.90;;;;;;6218814;22;20422;-85
2022/12/05 08:46:37;;;;;;;12.38;4.82;;;5.70;99.90;;;;;;6218736;22;20094;-87
2022/12/05 08:49:04;;;;;;;10.23;4.72;;;5.50;99.90;;;;;;6218413;22;20325;-86
2022/12/05 08:51:29;;;;;;;12.82;4.90;;;6.70;99.90;;;;;;6244750;22;20028;-88
2022/12/05 08:53:55;;;;;;;9.18;4.93;;;6.50;99.90;;;;;;6220041;22;20107;-85
2022/12/05 08:56:21;;;;;;;12.07;4.50;;;5.60;99.90;;;;;;6192976;22;20015;-86
2022/12/05 08:58:47;;;;;;;10.57;4.68;;;5.60;99.90;;;;;;6243332;22;20016;-86
2022/12/05 09:01:18;;;;;;;8.07;4.13;;;5.60;99.90;;;;;;6218905;22;20466;-87
2022/12/05 09:03:46;;;;;;;11.63;5.18;;;5.60;99.90;;;;;;6218284;22;20011;-87
2022/12/05 09:06:14;;;;;;;8.40;4.63;;;5.60;99.90;;;;;;6216999;22;20077;-87
2022/12/05 09:08:40;;;;;;;10.55;4.80;;;5.60;99.90;;;;;;6217390;22;20112;-87
2022/12/05 09:11:12;;;;;;;10.90;5.03;;;7.30;99.90;;;;;;6220221;22;20512;-88
2022/12/05 09:13:38;;;;;;;11.02;4.97;;;5.60;99.90;;;;;;6218238;22;20348;-88
2022/12/05 09:16:06;;;;;;;10.68;4.78;;;6.00;99.90;;;;;;6218985;22;20399;-88
2022/12/05 09:18:32;;;;;;;7.20;4.30;;;5.70;99.90;;;;;;6218003;22;20074;-87
2022/12/05 09:21:07;;;;;;;8.68;4.20;;;5.70;99.90;;;;;;6219011;22;20015;-88
2022/12/05 09:23:33;;;;;;;11.23;4.78;;;5.70;99.90;;;;;;6243780;22;20020;-88
2022/12/05 09:26:01;;;;;;;9.52;4.30;;;6.50;99.90;;;;;;6242528;22;20031;-87
2022/12/05 09:28:28;;;;;;;12.18;5.03;;;6.70;99.90;;;;;;6242687;22;20027;-85
2022/12/05 09:31:00;;;;;;;11.48;5.38;;;5.70;99.90;;;;;;6217659;22;20038;-87
2022/12/05 09:33:27;;;;;;;14.73;5.40;;;6.10;99.90;;;;;;6218740;22;20098;-85
2022/12/05 09:35:53;;;;;;;11.77;5.70;;;5.80;99.90;;;;;;6217782;22;20015;-87
2022/12/05 09:38:19;;;;;;;11.65;4.57;;;5.80;99.90;;;;;;6195222;22;20071;-85
2022/12/05 09:40:47;;;;;;;13.13;4.88;;;5.80;99.90;;;;;;6219444;22;20127;-88
2022/12/05 09:44:08;;;;;;;11.77;5.07;;;5.80;99.90;;;;;;6221920;22;20015;-87
2022/12/05 09:46:48;;;;;;;7.93;4.53;;;5.90;99.90;;;;;;6193371;22;20328;-89
2022/12/05 09:49:13;;;;;;;11.73;5.07;;;7.10;99.90;;;;;;6219340;22;20020;-89
2022/12/05 09:51:44;;;;;;;14.20;5.40;;;6.20;99.90;;;;;;6192677;22;20101;-88
2022/12/05 09:54:12;;;;;;;11.75;5.32;;;5.90;99.90;;;;;;6220519;22;20027;-88
2022/12/05 09:56:41;;;;;;;12.88;5.53;;;7.00;99.90;;;;;;6218994;22;20019;-89
2022/12/05 09:59:14;;;;;;;10.40;4.47;;;6.10;99.90;;;;;;6219659;22;20031;-88
2022/12/05 10:02:20;;;;;;;9.90;5.28;;;6.10;99.90;;;;;;6218495;22;20023;-89
2022/12/05 10:04:57;;;;;;;10.23;4.90;;;6.00;99.90;;;;;;6221407;22;20019;-88
2022/12/05 10:07:34;;;;;;;13.25;4.88;;;6.00;99.90;;;;;;6246857;22;20496;-86
2022/12/05 10:10:37;;;;;;;11.57;5.07;;;5.90;99.90;;;;;;6221319;22;20169;-87
2022/12/05 10:13:20;;;;;;;9.00;4.88;;;6.20;99.90;;;;;;6217330;22;20486;-85
2022/12/05 10:16:09;;;;;;;10.65;5.18;;;6.00;99.90;;;;;;6218284;22;20011;-86
2022/12/05 10:18:38;;;;;;;9.48;4.78;;;6.00;99.90;;;;;;6247026;22;20015;-86
2022/12/05 10:21:11;;;;;;;9.60;4.85;;;5.90;99.90;;;;;;6222167;22;20019;-89
2022/12/05 10:23:58;;;;;;;12.35;5.85;;;6.00;99.90;;;;;;6218976;22;20439;-87
2022/12/05 10:26:38;;;;;;;13.00;5.10;;;6.00;99.90;;;;;;6246380;22;20074;-86
2022/12/05 10:29:16;;;;;;;11.40;4.90;;;6.00;99.90;;;;;;6199604;22;20343;-88
2022/12/05 10:31:45;;;;;;;12.40;5.47;;;6.00;99.90;;;;;;6220562;22;20066;-86
2022/12/05 10:34:25;;;;;;;10.55;5.60;;;6.00;99.90;;;;;;6246637;22;20502;-88
2022/12/05 10:37:01;;;;;;;14.55;5.65;;;6.00;99.90;;;;;;6246494;22;20016;-88
2022/12/05 10:39:27;;;;;;;13.00;5.43;;;6.00;99.90;;;;;;6247353;22;20034;-88
2022/12/05 10:41:54;;;;;;;9.55;5.38;;;7.40;99.90;;;;;;6193775;22;20490;-82
2022/12/05 10:44:20;;;;;;;10.38;5.40;;;6.70;99.90;;;;;;6191895;22;20324;-87
2022/12/05 10:46:48;;;;;;;12.77;5.97;;;6.10;99.90;;;;;;6218359;22;20023;-87
2022/12/05 10:49:14;;;;;;;11.40;5.30;;;7.40;99.90;;;;;;6215758;22;20098;-86
2022/12/05 10:51:41;;;;;;;15.32;5.20;;;6.10;99.90;;;;;;6241916;22;20409;-88
2022/12/05 10:54:28;;;;;;;10.10;5.38;;;6.10;99.90;;;;;;6167567;22;20034;-88
2022/12/05 10:56:54;;;;;;;12.27;5.85;;;5.20;99.90;;;;;;6215613;22;20027;-85
2022/12/05 10:59:27;;;;;;;14.25;6.35;;;6.30;99.90;;;;;;6217189;22;20028;-88
2022/12/05 11:01:55;;;;;;;11.30;5.78;;;6.20;99.90;;;;;;6218148;22;20429;-85
2022/12/05 11:04:24;;;;;;;16.00;5.43;;;6.30;99.90;;;;;;6219309;22;20382;-86
2022/12/05 11:07:04;;;;;;;14.95;5.80;;;6.40;99.90;;;;;;6218389;22;20015;-85
2022/12/05 11:09:36;;;;;;;13.52;5.68;;;4.90;99.90;;;;;;6218661;22;20455;-87
2022/12/05 11:12:04;;;;;;;11.85;5.38;;;6.40;99.90;;;;;;6219700;22;20016;-86
2022/12/05 11:14:35;;;;;;;15.55;5.38;;;6.30;99.90;;;;;;6217649;22;20469;-87
2022/12/05 11:17:03;;;;;;;15.27;5.63;;;4.80;99.90;;;;;;6214179;22;20011;-86
2022/12/05 11:19:35;;;;;;;11.10;5.15;;;6.60;99.90;;;;;;6216124;22;20023;-86
2022/12/05 11:22:02;;;;;;;14.13;5.18;;;6.20;99.90;;;;;;6216650;22;20728;-87
2022/12/05 11:24:33;;;;;;;10.15;5.15;;;6.30;99.90;;;;;;6241299;22;20015;-86
2022/12/05 11:27:28;;;;;;;14.98;5.22;;;6.40;99.90;;;;;;6215559;22;20055;-86
2022/12/05 11:29:59;;;;;;;9.57;4.95;;;6.40;99.90;;;;;;6216744;22;20012;-86
2022/12/05 11:32:30;;;;;;;11.30;4.72;;;6.40;99.90;;;;;;6216935;22;20148;-85
2022/12/05 11:35:06;;;;;;;10.75;5.07;;;7.90;99.90;;;;;;6215697;22;20020;-85
2022/12/05 11:38:05;;;;;;;9.85;4.60;;;6.50;99.90;;;;;;6216107;22;20024;-86
2022/12/05 11:40:55;;;;;;;10.45;4.47;;;6.50;99.90;;;;;;6213277;22;20091;-84
2022/12/05 11:44:12;;;;;;;15.30;5.45;;;6.40;99.90;;;;;;6244703;22;20016;-85
2022/12/05 11:47:08;;;;;;;13.80;5.88;;;6.40;99.90;;;;;;6068549;23;20493;-85
2022/12/05 11:49:55;;;;;;;11.73;4.63;;;6.40;99.90;;;;;;6092585;23;20057;-91
2022/12/05 11:52:53;;;;;;;13.60;5.45;;;6.40;99.90;;;;;;6218086;22;20043;-84
2022/12/05 11:55:30;;;;;;;10.07;5.00;;;6.50;99.90;;;;;;6186424;22;20051;-85
2022/12/05 11:58:24;;;;;;;11.02;4.43;;;6.60;99.90;;;;;;6216791;22;20089;-86
2022/12/05 12:01:17;;;;;;;8.82;4.47;;;6.30;99.90;;;;;;6215380;22;20098;-86
2022/12/05 12:03:58;;;;;;;13.10;4.85;;;6.40;99.90;;;;;;6241185;22;20023;-86
2022/12/05 12:06:30;;;;;;;11.88;5.07;;;6.50;99.90;;;;;;6216675;22;20023;-85
2022/12/05 12:09:17;;;;;;;14.40;4.88;;;7.90;99.90;;;;;;6216186;22;20341;-86
2022/12/05 12:12:07;;;;;;;12.50;5.38;;;6.40;99.90;;;;;;6238272;22;20068;-86
2022/12/05 12:14:39;;;;;;;14.05;4.97;;;6.40;99.90;;;;;;6240946;22;20012;-85
2022/12/05 12:17:07;;;;;;;11.30;4.93;;;6.30;99.90;;;;;;6216649;22;20023;-86
2022/12/05 12:19:39;;;;;;;14.75;5.13;;;6.30;99.90;;;;;;6243585;22;20020;-85
2022/12/05 12:22:24;;;;;;;10.30;4.78;;;6.40;99.90;;;;;;6242342;22;20016;-85
2022/12/05 12:25:01;;;;;;;11.27;4.32;;;6.40;99.90;;;;;;6244627;22;20026;-85
2022/12/05 12:27:46;;;;;;;11.20;4.38;;;6.40;99.90;;;;;;6242874;22;20033;-86
2022/12/05 12:30:21;;;;;;;15.45;5.47;;;6.40;99.90;;;;;;6218021;22;20098;-85
2022/12/05 12:33:20;;;;;;;11.18;3.90;;;6.40;99.90;;;;;;6244299;22;20019;-86
2022/12/05 12:36:17;;;;;;;15.05;4.85;;;5.00;99.90;;;;;;6217395;22;20080;-85
2022/12/05 12:39:06;;;;;;;12.13;4.45;;;6.40;99.90;;;;;;6215922;22;20443;-85
2022/12/05 12:41:53;;;;;;;10.23;4.00;;;6.40;99.90;;;;;;6216633;22;20023;-85
2022/12/05 12:44:52;;;;;;;9.45;4.68;;;6.00;99.90;;;;;;6215489;22;20347;-86
2022/12/05 12:48:05;;;;;;;11.15;4.30;;;6.40;99.90;;;;;;6215898;22;20435;-86
2022/12/05 12:50:33;;;;;;;9.77;3.90;;;6.50;99.90;;;;;;6191675;22;20022;-87
2022/12/05 12:53:27;;;;;;;11.90;4.68;;;6.60;99.90;;;;;;6215091;22;20178;-86
2022/12/05 12:56:00;;;;;;;11.85;3.88;;;6.40;99.90;;;;;;6240049;22;20015;-87
2022/12/05 12:58:43;;;;;;;11.43;4.35;;;6.40;99.90;;;;;;6217568;22;20553;-86
2022/12/05 13:01:23;;;;;;;10.63;4.20;;;6.40;99.90;;;;;;6216352;22;20024;-87
2022/12/05 13:04:15;;;;;;;8.27;4.55;;;6.30;99.90;;;;;;6242851;22;20016;-87
2022/12/05 13:07:02;;;;;;;9.20;4.30;;;6.50;99.90;;;;;;6216556;22;20122;-88
2022/12/05 13:09:36;;;;;;;11.18;4.85;;;6.50;99.90;;;;;;6218350;22;20347;-86
2022/12/05 13:12:12;;;;;;;11.43;5.90;;;6.30;99.90;;;;;;6217581;22;20016;-87
2022/12/05 13:14:47;;;;;;;14.73;4.90;;;6.50;99.90;;;;;;6218153;22;20020;-86
2022/12/05 13:17:18;;;;;;;12.95;4.82;;;6.40;99.90;;;;;;6243808;22;20085;-87
2022/12/05 13:19:47;;;;;;;12.95;5.03;;;6.30;99.90;;;;;;6218052;22;20019;-88
2022/12/05 13:22:15;;;;;;;11.02;4.65;;;6.40;99.90;;;;;;6217576;22;20055;-86
2022/12/05 13:24:44;;;;;;;9.05;4.57;;;6.50;99.90;;;;;;6218017;22;20099;-85
2022/12/05 13:27:22;;;;;;;14.02;4.50;;;5.80;99.90;;;;;;6217823;22;20066;-87
2022/12/05 13:30:00;;;;;;;10.75;4.30;;;6.30;99.90;;;;;;6219631;22;20343;-87
2022/12/05 13:32:39;;;;;;;9.75;4.13;;;6.30;99.90;;;;;;6219844;22;20016;-85
2022/12/05 13:43:42;;;;;;;10.27;4.15;;;6.30;99.90;;;;;;6245149;22;20049;-86
2022/12/05 13:46:12;;;;;;;9.93;3.67;;;7.80;99.90;;;;;;6219861;22;20038;-89
2022/12/05 13:48:46;;;;;;;9.57;4.32;;;6.40;99.90;;;;;;6218137;22;20106;-86
2022/12/05 13:51:46;;;;;;;10.75;4.88;;;6.50;99.90;;;;;;6188615;23;20489;-86
2022/12/05 13:54:22;;;;;;;7.00;3.70;;;6.30;99.90;;;;;;6162468;23;20032;-86
2022/12/05 13:57:00;;;;;;;11.73;4.20;;;6.40;99.90;;;;;;6189449;23;20044;-87
2022/12/05 14:00:03;;;;;;;8.25;3.67;;;6.30;99.90;;;;;;6215090;23;20013;-86
2022/12/05 14:02:42;;;;;;;8.43;4.18;;;7.70;99.90;;;;;;6189899;23;20027;-86
2022/12/05 14:05:19;;;;;;;10.27;4.80;;;6.30;99.90;;;;;;6188305;23;20120;-86
2022/12/05 14:07:46;;;;;;;12.82;5.53;;;6.40;99.90;;;;;;6215014;23;20436;-87
2022/12/05 14:10:20;;;;;;;13.20;5.15;;;6.50;99.90;;;;;;6215084;23;20023;-86
2022/12/05 14:12:57;;;;;;;10.77;4.30;;;6.40;99.90;;;;;;6189774;23;20020;-89
2022/12/05 14:15:47;;;;;;;11.65;4.60;;;6.20;99.90;;;;;;6213811;23;20091;-88
2022/12/05 14:18:21;;;;;;;8.55;4.38;;;6.50;99.90;;;;;;6188958;23;20020;-87
2022/12/05 14:21:15;;;;;;;8.55;3.83;;;6.20;99.90;;;;;;6189726;23;20019;-88
2022/12/05 14:24:02;;;;;;;6.75;3.95;;;6.20;99.90;;;;;;6214415;23;20023;-88
2022/12/05 14:26:58;;;;;;;9.50;4.03;;;6.20;99.90;;;;;;6189741;23;20401;-86
2022/12/05 14:29:56;;;;;;;6.22;3.78;;;6.20;99.90;;;;;;6214707;23;20020;-87
2022/12/05 14:32:37;;;;;;;10.05;3.78;;;6.20;99.90;;;;;;6189123;23;20020;-88
2022/12/05 14:35:14;;;;;;;9.00;4.18;;;6.20;99.90;;;;;;6212869;23;20008;-88
2022/12/05 14:37:51;;;;;;;10.45;3.60;;;6.20;99.90;;;;;;6188340;23;20044;-87
2022/12/05 14:40:22;;;;;;;9.02;4.07;;;6.20;99.90;;;;;;6214944;23;20098;-88
2022/12/05 14:43:25;;;;;;;10.82;4.18;;;7.20;99.90;;;;;;6214541;23;20027;-88